sensor_id;sensor_type;location;lat;lon;timestamp;temperature;humidity
3488;DHT22;38546;48.170;11.724;2024-01-25T00:01:38;9.00;99.90
3488;DHT22;38546;48.170;11.724;2024-01-25T00:04:09;9.00;99.90
3488;DHT22;38546;48.170;11.724;2024-01-25T00:06:40;9.10;99.90
3488;DHT22;38546;48.170;11.724;2024-01-25T00:09:10;9.00;99.90
3488;DHT22;38546;48.170;11.724;2024-01-25T00:11:42;9.10;99.90
3488;DHT22;38546;48.170;11.724;2024-01-25T00:14:13;9.00;99.90
3488;DHT22;38546;48.170;11.724;2024-01-25T00:16:44;9.00;99.90
3488;DHT22;38546;48.170;11.724;2024-01-25T00:19:14;9.10;99.90
3488;DHT22;38546;48.170;11.724;2024-01-25T00:21:45;9.00;99.90
3488;DHT22;38546;48.170;11.724;2024-01-25T00:24:16;8.90;99.90
3488;DHT22;38546;48.170;11.724;2024-01-25T00:26:47;9.00;99.90
3488;DHT22;38546;48.170;11.724;2024-01-25T00:29:17;9.00;99.90
3488;DHT22;38546;48.170;11.724;2024-01-25T00:31:48;9.00;99.90
3488;DHT22;38546;48.170;11.724;2024-01-25T00:34:19;9.00;99.90
3488;DHT22;38546;48.170;11.724;2024-01-25T00:36:50;9.10;99.90
3488;DHT22;38546;48.170;11.724;2024-01-25T00:39:22;9.10;99.90
3488;DHT22;38546;48.170;11.724;2024-01-25T00:41:58;9.00;99.90
3488;DHT22;38546;48.170;11.724;2024-01-25T00:44:35;8.90;99.90
3488;DHT22;38546;48.170;11.724;2024-01-25T00:47:07;8.90;99.90
3488;DHT22;38546;48.170;11.724;2024-01-25T00:49:39;9.00;99.90
3488;DHT22;38546;48.170;11.724;2024-01-25T00:52:11;9.00;99.90
3488;DHT22;38546;48.170;11.724;2024-01-25T00:54:43;8.90;99.90
3488;DHT22;38546;48.170;11.724;2024-01-25T00:57:14;8.90;99.90
3488;DHT22;38546;48.170;11.724;2024-01-25T00:59:46;8.90;99.90
3488;DHT22;38546;48.170;11.724;2024-01-25T01:02:20;8.90;99.90
3488;DHT22;38546;48.170;11.724;2024-01-25T01:04:52;8.90;99.90
3488;DHT22;38546;48.170;11.724;2024-01-25T01:07:24;9.00;99.90
3488;DHT22;38546;48.170;11.724;2024-01-25T01:09:55;9.00;99.90
3488;DHT22;38546;48.170;11.724;2024-01-25T01:12:26;9.10;99.90
3488;DHT22;38546;48.170;11.724;2024-01-25T01:14:56;9.10;99.90
3488;DHT22;38546;48.170;11.724;2024-01-25T01:17:27;9.00;99.90
3488;DHT22;38546;48.170;11.724;2024-01-25T01:19:58;9.00;99.90
3488;DHT22;38546;48.170;11.724;2024-01-25T01:22:28;9.00;99.90
3488;DHT22;38546;48.170;11.724;2024-01-25T01:24:59;9.00;99.90
3488;DHT22;38546;48.170;11.724;2024-01-25T01:27:30;9.10;99.90
3488;DHT22;38546;48.170;11.724;2024-01-25T01:30:00;9.00;99.90
3488;DHT22;38546;48.170;11.724;2024-01-25T01:32:31;9.20;99.90
3488;DHT22;38546;48.170;11.724;2024-01-25T01:35:02;9.10;99.90
3488;DHT22;38546;48.170;11.724;2024-01-25T01:37:33;9.00;99.90
3488;DHT22;38546;48.170;11.724;2024-01-25T01:40:04;9.10;99.90
3488;DHT22;38546;48.170;11.724;2024-01-25T01:42:36;9.00;99.90
3488;DHT22;38546;48.170;11.724;2024-01-25T01:45:07;9.00;99.90
3488;DHT22;38546;48.170;11.724;2024-01-25T01:47:41;9.00;99.90
3488;DHT22;38546;48.170;11.724;2024-01-25T01:50:12;9.10;99.90
3488;DHT22;38546;48.170;11.724;2024-01-25T01:52:43;9.10;99.90
3488;DHT22;38546;48.170;11.724;2024-01-25T01:55:14;9.00;99.90
3488;DHT22;38546;48.170;11.724;2024-01-25T01:57:45;9.10;99.90
3488;DHT22;38546;48.170;11.724;2024-01-25T02:00:17;9.10;99.90
3488;DHT22;38546;48.170;11.724;2024-01-25T02:02:48;9.00;99.90
3488;DHT22;38546;48.170;11.724;2024-01-25T02:05:19;8.90;99.90
3488;DHT22;38546;48.170;11.724;2024-01-25T02:07:50;9.00;99.90
3488;DHT22;38546;48.170;11.724;2024-01-25T02:10:22;9.00;99.90
3488;DHT22;38546;48.170;11.724;2024-01-25T02:12:53;9.10;99.90
3488;DHT22;38546;48.170;11.724;2024-01-25T02:15:24;9.00;99.90
3488;DHT22;38546;48.170;11.724;2024-01-25T02:17:55;9.00;99.90
3488;DHT22;38546;48.170;11.724;2024-01-25T02:20:26;9.10;99.90
3488;DHT22;38546;48.170;11.724;2024-01-25T02:22:57;9.10;99.90
3488;DHT22;38546;48.170;11.724;2024-01-25T02:25:27;9.00;99.90
3488;DHT22;38546;48.170;11.724;2024-01-25T02:27:58;9.10;99.90
3488;DHT22;38546;48.170;11.724;2024-01-25T02:30:29;9.00;99.90
3488;DHT22;38546;48.170;11.724;2024-01-25T02:32:59;9.00;99.90
3488;DHT22;38546;48.170;11.724;2024-01-25T02:35:30;9.00;99.90
3488;DHT22;38546;48.170;11.724;2024-01-25T02:38:01;9.00;99.90
3488;DHT22;38546;48.170;11.724;2024-01-25T02:40:31;8.80;99.90
3488;DHT22;38546;48.170;11.724;2024-01-25T02:43:02;8.90;99.90
3488;DHT22;38546;48.170;11.724;2024-01-25T02:45:33;8.80;99.90
3488;DHT22;38546;48.170;11.724;2024-01-25T02:48:04;8.80;99.90
3488;DHT22;38546;48.170;11.724;2024-01-25T02:50:35;9.00;99.90
3488;DHT22;38546;48.170;11.724;2024-01-25T02:53:06;9.00;99.90
3488;DHT22;38546;48.170;11.724;2024-01-25T02:55:37;9.10;99.90
3488;DHT22;38546;48.170;11.724;2024-01-25T02:58:07;9.00;99.90
3488;DHT22;38546;48.170;11.724;2024-01-25T03:00:38;9.00;99.90
3488;DHT22;38546;48.170;11.724;2024-01-25T03:03:08;9.10;99.90
3488;DHT22;38546;48.170;11.724;2024-01-25T03:05:39;9.10;99.90
3488;DHT22;38546;48.170;11.724;2024-01-25T03:08:10;9.00;99.90
3488;DHT22;38546;48.170;11.724;2024-01-25T03:10:40;9.00;99.90
3488;DHT22;38546;48.170;11.724;2024-01-25T03:13:11;9.00;99.90
3488;DHT22;38546;48.170;11.724;2024-01-25T03:15:43;9.00;99.90
3488;DHT22;38546;48.170;11.724;2024-01-25T03:18:14;8.90;99.90
3488;DHT22;38546;48.170;11.724;2024-01-25T03:20:44;8.80;99.90
3488;DHT22;38546;48.170;11.724;2024-01-25T03:23:15;8.80;99.90
3488;DHT22;38546;48.170;11.724;2024-01-25T03:25:46;8.90;99.90
3488;DHT22;38546;48.170;11.724;2024-01-25T03:28:16;8.70;99.90
3488;DHT22;38546;48.170;11.724;2024-01-25T03:30:49;8.70;99.90
3488;DHT22;38546;48.170;11.724;2024-01-25T03:33:20;8.70;99.90
3488;DHT22;38546;48.170;11.724;2024-01-25T03:35:50;8.80;99.90
3488;DHT22;38546;48.170;11.724;2024-01-25T03:38:22;8.80;99.90
3488;DHT22;38546;48.170;11.724;2024-01-25T03:40:52;8.90;99.90
3488;DHT22;38546;48.170;11.724;2024-01-25T03:43:23;9.00;99.90
3488;DHT22;38546;48.170;11.724;2024-01-25T03:45:56;9.00;99.90
3488;DHT22;38546;48.170;11.724;2024-01-25T03:48:27;8.90;99.90
3488;DHT22;38546;48.170;11.724;2024-01-25T03:50:58;9.00;99.90
3488;DHT22;38546;48.170;11.724;2024-01-25T03:53:28;8.90;99.90
3488;DHT22;38546;48.170;11.724;2024-01-25T03:56:00;8.80;99.90
3488;DHT22;38546;48.170;11.724;2024-01-25T03:58:31;9.00;99.90
3488;DHT22;38546;48.170;11.724;2024-01-25T04:01:02;9.00;99.90
3488;DHT22;38546;48.170;11.724;2024-01-25T04:03:33;8.90;99.90
3488;DHT22;38546;48.170;11.724;2024-01-25T04:06:05;8.90;99.90
3488;DHT22;38546;48.170;11.724;2024-01-25T04:08:35;9.00;99.90
3488;DHT22;38546;48.170;11.724;2024-01-25T04:11:06;8.90;99.90
3488;DHT22;38546;48.170;11.724;2024-01-25T04:13:38;9.00;99.90
3488;DHT22;38546;48.170;11.724;2024-01-25T04:16:09;8.90;99.90
3488;DHT22;38546;48.170;11.724;2024-01-25T04:18:39;8.90;99.90
3488;DHT22;38546;48.170;11.724;2024-01-25T04:21:10;8.90;99.90
3488;DHT22;38546;48.170;11.724;2024-01-25T04:23:40;8.90;99.90
3488;DHT22;38546;48.170;11.724;2024-01-25T04:26:11;8.90;99.90
3488;DHT22;38546;48.170;11.724;2024-01-25T04:28:42;8.90;99.90
3488;DHT22;38546;48.170;11.724;2024-01-25T04:31:13;8.80;99.90
3488;DHT22;38546;48.170;11.724;2024-01-25T04:33:43;9.00;99.90
3488;DHT22;38546;48.170;11.724;2024-01-25T04:36:14;9.00;99.90
3488;DHT22;38546;48.170;11.724;2024-01-25T04:38:45;9.00;99.90
3488;DHT22;38546;48.170;11.724;2024-01-25T04:41:16;8.90;99.90
3488;DHT22;38546;48.170;11.724;2024-01-25T04:43:47;9.10;99.90
3488;DHT22;38546;48.170;11.724;2024-01-25T04:46:17;8.90;99.90
3488;DHT22;38546;48.170;11.724;2024-01-25T04:48:48;9.00;99.90
3488;DHT22;38546;48.170;11.724;2024-01-25T04:51:20;9.00;99.90
3488;DHT22;38546;48.170;11.724;2024-01-25T04:53:50;8.90;99.90
3488;DHT22;38546;48.170;11.724;2024-01-25T04:56:21;8.90;99.90
3488;DHT22;38546;48.170;11.724;2024-01-25T04:58:51;8.90;99.90
3488;DHT22;38546;48.170;11.724;2024-01-25T05:01:22;9.00;99.90
3488;DHT22;38546;48.170;11.724;2024-01-25T05:03:53;8.90;99.90
3488;DHT22;38546;48.170;11.724;2024-01-25T05:06:23;8.90;99.90
3488;DHT22;38546;48.170;11.724;2024-01-25T05:08:54;8.80;99.90
3488;DHT22;38546;48.170;11.724;2024-01-25T05:11:25;8.70;99.90
3488;DHT22;38546;48.170;11.724;2024-01-25T05:13:55;8.70;99.90
3488;DHT22;38546;48.170;11.724;2024-01-25T05:16:26;8.90;99.90
3488;DHT22;38546;48.170;11.724;2024-01-25T05:18:57;8.80;99.90
3488;DHT22;38546;48.170;11.724;2024-01-25T05:21:27;8.80;99.90
3488;DHT22;38546;48.170;11.724;2024-01-25T05:23:58;8.80;99.90
3488;DHT22;38546;48.170;11.724;2024-01-25T05:26:28;8.90;99.90
3488;DHT22;38546;48.170;11.724;2024-01-25T05:28:59;8.90;99.90
3488;DHT22;38546;48.170;11.724;2024-01-25T05:31:30;8.90;99.90
3488;DHT22;38546;48.170;11.724;2024-01-25T05:34:00;8.90;99.90
3488;DHT22;38546;48.170;11.724;2024-01-25T05:36:31;8.80;99.90
3488;DHT22;38546;48.170;11.724;2024-01-25T05:39:02;8.70;99.90
3488;DHT22;38546;48.170;11.724;2024-01-25T05:41:36;8.70;99.90
3488;DHT22;38546;48.170;11.724;2024-01-25T05:44:07;8.60;99.90
3488;DHT22;38546;48.170;11.724;2024-01-25T05:46:38;8.60;99.90
3488;DHT22;38546;48.170;11.724;2024-01-25T05:49:08;8.50;99.90
3488;DHT22;38546;48.170;11.724;2024-01-25T05:51:39;8.70;99.90
3488;DHT22;38546;48.170;11.724;2024-01-25T05:54:10;8.60;99.90
3488;DHT22;38546;48.170;11.724;2024-01-25T05:56:40;8.70;99.90
3488;DHT22;38546;48.170;11.724;2024-01-25T05:59:11;8.50;99.90
3488;DHT22;38546;48.170;11.724;2024-01-25T06:01:41;8.60;99.90
3488;DHT22;38546;48.170;11.724;2024-01-25T06:04:12;8.50;99.90
3488;DHT22;38546;48.170;11.724;2024-01-25T06:06:43;8.60;99.90
3488;DHT22;38546;48.170;11.724;2024-01-25T06:09:13;8.60;99.90
3488;DHT22;38546;48.170;11.724;2024-01-25T06:11:47;8.70;99.90
3488;DHT22;38546;48.170;11.724;2024-01-25T06:14:18;8.90;99.90
3488;DHT22;38546;48.170;11.724;2024-01-25T06:16:48;8.70;99.90
3488;DHT22;38546;48.170;11.724;2024-01-25T06:19:19;8.60;99.90
3488;DHT22;38546;48.170;11.724;2024-01-25T06:21:50;8.50;99.90
3488;DHT22;38546;48.170;11.724;2024-01-25T06:24:20;8.40;99.90
3488;DHT22;38546;48.170;11.724;2024-01-25T06:26:52;8.50;99.90
3488;DHT22;38546;48.170;11.724;2024-01-25T06:29:23;8.50;99.90
3488;DHT22;38546;48.170;11.724;2024-01-25T06:31:54;8.40;99.90
3488;DHT22;38546;48.170;11.724;2024-01-25T06:34:25;8.40;99.90
3488;DHT22;38546;48.170;11.724;2024-01-25T06:36:55;8.50;99.90
3488;DHT22;38546;48.170;11.724;2024-01-25T06:39:26;8.50;99.90
3488;DHT22;38546;48.170;11.724;2024-01-25T06:41:57;8.40;99.90
3488;DHT22;38546;48.170;11.724;2024-01-25T06:44:28;8.40;99.90
3488;DHT22;38546;48.170;11.724;2024-01-25T06:46:58;8.40;99.90
3488;DHT22;38546;48.170;11.724;2024-01-25T06:49:29;8.30;99.90
3488;DHT22;38546;48.170;11.724;2024-01-25T06:52:00;8.20;99.90
3488;DHT22;38546;48.170;11.724;2024-01-25T06:54:30;8.20;99.90
3488;DHT22;38546;48.170;11.724;2024-01-25T06:57:01;8.20;99.90
3488;DHT22;38546;48.170;11.724;2024-01-25T06:59:33;8.10;99.90
3488;DHT22;38546;48.170;11.724;2024-01-25T07:02:03;8.10;99.90
3488;DHT22;38546;48.170;11.724;2024-01-25T07:04:34;8.10;99.90
3488;DHT22;38546;48.170;11.724;2024-01-25T07:07:05;8.00;99.90
3488;DHT22;38546;48.170;11.724;2024-01-25T07:09:35;8.00;99.90
3488;DHT22;38546;48.170;11.724;2024-01-25T07:12:06;8.10;99.90
3488;DHT22;38546;48.170;11.724;2024-01-25T07:14:37;8.40;99.90
3488;DHT22;38546;48.170;11.724;2024-01-25T07:17:08;8.20;99.90
3488;DHT22;38546;48.170;11.724;2024-01-25T07:19:38;8.20;99.90
3488;DHT22;38546;48.170;11.724;2024-01-25T07:22:09;8.20;99.90
3488;DHT22;38546;48.170;11.724;2024-01-25T07:24:42;8.00;99.90
3488;DHT22;38546;48.170;11.724;2024-01-25T07:27:12;8.00;99.90
3488;DHT22;38546;48.170;11.724;2024-01-25T07:29:44;8.10;99.90
3488;DHT22;38546;48.170;11.724;2024-01-25T07:32:15;8.00;99.90
3488;DHT22;38546;48.170;11.724;2024-01-25T07:34:47;8.10;99.90
3488;DHT22;38546;48.170;11.724;2024-01-25T07:37:17;8.20;99.90
3488;DHT22;38546;48.170;11.724;2024-01-25T07:39:51;8.10;99.90
3488;DHT22;38546;48.170;11.724;2024-01-25T07:42:21;8.10;99.90
3488;DHT22;38546;48.170;11.724;2024-01-25T07:44:52;8.20;99.90
3488;DHT22;38546;48.170;11.724;2024-01-25T07:47:23;8.10;99.90
3488;DHT22;38546;48.170;11.724;2024-01-25T07:49:54;8.10;99.90
3488;DHT22;38546;48.170;11.724;2024-01-25T07:52:24;8.20;99.90
3488;DHT22;38546;48.170;11.724;2024-01-25T07:54:58;8.30;99.90
3488;DHT22;38546;48.170;11.724;2024-01-25T07:57:29;8.30;99.90
3488;DHT22;38546;48.170;11.724;2024-01-25T07:59:59;8.20;99.90
3488;DHT22;38546;48.170;11.724;2024-01-25T08:02:30;8.30;99.90
3488;DHT22;38546;48.170;11.724;2024-01-25T08:05:01;8.40;99.90
3488;DHT22;38546;48.170;11.724;2024-01-25T08:07:32;8.40;99.90
3488;DHT22;38546;48.170;11.724;2024-01-25T08:10:05;8.30;99.90
3488;DHT22;38546;48.170;11.724;2024-01-25T08:12:36;8.40;99.90
3488;DHT22;38546;48.170;11.724;2024-01-25T08:15:10;8.40;99.90
3488;DHT22;38546;48.170;11.724;2024-01-25T08:17:41;8.50;99.90
3488;DHT22;38546;48.170;11.724;2024-01-25T08:20:12;8.50;99.90
3488;DHT22;38546;48.170;11.724;2024-01-25T08:22:44;8.50;99.90
3488;DHT22;38546;48.170;11.724;2024-01-25T08:25:15;8.50;99.90
3488;DHT22;38546;48.170;11.724;2024-01-25T08:27:46;8.40;99.90
3488;DHT22;38546;48.170;11.724;2024-01-25T08:30:17;8.40;99.90
3488;DHT22;38546;48.170;11.724;2024-01-25T08:32:48;8.40;99.90
3488;DHT22;38546;48.170;11.724;2024-01-25T08:35:19;8.20;99.90
3488;DHT22;38546;48.170;11.724;2024-01-25T08:37:50;8.40;99.90
3488;DHT22;38546;48.170;11.724;2024-01-25T08:40:20;8.70;99.90
3488;DHT22;38546;48.170;11.724;2024-01-25T08:42:51;8.70;99.90
3488;DHT22;38546;48.170;11.724;2024-01-25T08:45:22;8.60;99.90
3488;DHT22;38546;48.170;11.724;2024-01-25T08:47:53;8.90;99.90
3488;DHT22;38546;48.170;11.724;2024-01-25T08:50:23;8.80;99.90
3488;DHT22;38546;48.170;11.724;2024-01-25T08:52:54;8.70;99.90
3488;DHT22;38546;48.170;11.724;2024-01-25T08:55:25;8.70;99.90
3488;DHT22;38546;48.170;11.724;2024-01-25T08:57:55;8.70;99.90
3488;DHT22;38546;48.170;11.724;2024-01-25T09:00:26;8.70;99.90
3488;DHT22;38546;48.170;11.724;2024-01-25T09:02:57;8.70;99.90
3488;DHT22;38546;48.170;11.724;2024-01-25T09:05:27;8.60;99.90
3488;DHT22;38546;48.170;11.724;2024-01-25T09:07:58;8.70;99.90
3488;DHT22;38546;48.170;11.724;2024-01-25T09:10:29;8.80;99.90
3488;DHT22;38546;48.170;11.724;2024-01-25T09:13:00;8.90;99.90
3488;DHT22;38546;48.170;11.724;2024-01-25T09:15:30;9.00;99.90
3488;DHT22;38546;48.170;11.724;2024-01-25T09:18:01;9.00;99.90
3488;DHT22;38546;48.170;11.724;2024-01-25T09:20:33;9.10;99.90
3488;DHT22;38546;48.170;11.724;2024-01-25T09:23:04;9.20;99.90
3488;DHT22;38546;48.170;11.724;2024-01-25T09:25:34;9.30;99.90
3488;DHT22;38546;48.170;11.724;2024-01-25T09:28:06;9.20;99.90
3488;DHT22;38546;48.170;11.724;2024-01-25T09:30:37;9.40;99.90
3488;DHT22;38546;48.170;11.724;2024-01-25T09:33:08;9.50;99.90
3488;DHT22;38546;48.170;11.724;2024-01-25T09:35:39;9.50;99.90
3488;DHT22;38546;48.170;11.724;2024-01-25T09:38:10;9.80;99.90
3488;DHT22;38546;48.170;11.724;2024-01-25T09:40:40;10.00;99.90
3488;DHT22;38546;48.170;11.724;2024-01-25T09:43:11;9.80;99.90
3488;DHT22;38546;48.170;11.724;2024-01-25T09:45:43;9.70;99.90
3488;DHT22;38546;48.170;11.724;2024-01-25T09:48:14;9.60;99.90
3488;DHT22;38546;48.170;11.724;2024-01-25T09:50:47;9.40;99.90
3488;DHT22;38546;48.170;11.724;2024-01-25T09:53:21;9.40;99.90
3488;DHT22;38546;48.170;11.724;2024-01-25T09:56:54;9.20;99.90
3488;DHT22;38546;48.170;11.724;2024-01-25T09:59:26;9.00;99.90
3488;DHT22;38546;48.170;11.724;2024-01-25T10:01:58;9.10;99.90
3488;DHT22;38546;48.170;11.724;2024-01-25T10:04:29;9.10;99.90
3488;DHT22;38546;48.170;11.724;2024-01-25T10:07:00;9.10;99.90
3488;DHT22;38546;48.170;11.724;2024-01-25T10:09:41;9.20;99.90
3488;DHT22;38546;48.170;11.724;2024-01-25T10:12:12;9.20;99.90
3488;DHT22;38546;48.170;11.724;2024-01-25T10:14:43;9.10;99.90
3488;DHT22;38546;48.170;11.724;2024-01-25T10:17:14;9.10;99.90
3488;DHT22;38546;48.170;11.724;2024-01-25T10:19:45;9.10;99.90
3488;DHT22;38546;48.170;11.724;2024-01-25T10:22:15;9.00;99.90
3488;DHT22;38546;48.170;11.724;2024-01-25T10:24:46;9.00;99.90
3488;DHT22;38546;48.170;11.724;2024-01-25T10:27:21;9.20;99.90
3488;DHT22;38546;48.170;11.724;2024-01-25T10:29:52;9.20;99.90
3488;DHT22;38546;48.170;11.724;2024-01-25T10:32:23;9.40;99.90
3488;DHT22;38546;48.170;11.724;2024-01-25T10:34:55;9.50;99.90
3488;DHT22;38546;48.170;11.724;2024-01-25T10:37:27;9.70;99.90
3488;DHT22;38546;48.170;11.724;2024-01-25T10:39:59;9.90;99.90
3488;DHT22;38546;48.170;11.724;2024-01-25T10:42:30;10.10;99.90
3488;DHT22;38546;48.170;11.724;2024-01-25T10:45:01;10.00;99.90
3488;DHT22;38546;48.170;11.724;2024-01-25T10:47:32;9.90;99.90
3488;DHT22;38546;48.170;11.724;2024-01-25T10:50:06;10.00;99.90
3488;DHT22;38546;48.170;11.724;2024-01-25T10:52:42;10.00;99.90
3488;DHT22;38546;48.170;11.724;2024-01-25T10:55:14;10.00;99.90
3488;DHT22;38546;48.170;11.724;2024-01-25T10:57:45;9.90;99.90
3488;DHT22;38546;48.170;11.724;2024-01-25T11:00:17;9.80;99.90
3488;DHT22;38546;48.170;11.724;2024-01-25T11:02:51;9.80;99.90
3488;DHT22;38546;48.170;11.724;2024-01-25T11:05:23;9.90;99.90
3488;DHT22;38546;48.170;11.724;2024-01-25T11:07:53;10.00;99.90
3488;DHT22;38546;48.170;11.724;2024-01-25T11:10:26;10.10;99.90
3488;DHT22;38546;48.170;11.724;2024-01-25T11:13:00;10.10;99.90
3488;DHT22;38546;48.170;11.724;2024-01-25T11:15:36;10.20;99.90
3488;DHT22;38546;48.170;11.724;2024-01-25T11:18:08;10.20;99.90
3488;DHT22;38546;48.170;11.724;2024-01-25T11:20:39;10.10;99.90
3488;DHT22;38546;48.170;11.724;2024-01-25T11:23:15;10.20;99.90
3488;DHT22;38546;48.170;11.724;2024-01-25T11:25:47;10.30;99.90
3488;DHT22;38546;48.170;11.724;2024-01-25T11:28:18;10.30;99.90
3488;DHT22;38546;48.170;11.724;2024-01-25T11:30:49;10.10;99.90
3488;DHT22;38546;48.170;11.724;2024-01-25T11:33:20;10.10;99.90
3488;DHT22;38546;48.170;11.724;2024-01-25T11:35:55;10.00;99.90
3488;DHT22;38546;48.170;11.724;2024-01-25T11:38:25;9.80;99.90
3488;DHT22;38546;48.170;11.724;2024-01-25T11:40:57;9.60;99.90
3488;DHT22;38546;48.170;11.724;2024-01-25T11:43:28;9.70;99.90
3488;DHT22;38546;48.170;11.724;2024-01-25T11:45:59;9.80;99.90
3488;DHT22;38546;48.170;11.724;2024-01-25T11:48:30;9.60;99.90
3488;DHT22;38546;48.170;11.724;2024-01-25T11:51:00;9.70;99.90
3488;DHT22;38546;48.170;11.724;2024-01-25T11:53:31;9.80;99.90
3488;DHT22;38546;48.170;11.724;2024-01-25T11:56:02;10.10;99.90
3488;DHT22;38546;48.170;11.724;2024-01-25T11:58:43;10.00;99.90
3488;DHT22;38546;48.170;11.724;2024-01-25T12:01:16;10.10;99.90
3488;DHT22;38546;48.170;11.724;2024-01-25T12:03:48;10.00;99.90
3488;DHT22;38546;48.170;11.724;2024-01-25T12:06:19;10.00;99.90
3488;DHT22;38546;48.170;11.724;2024-01-25T12:08:50;10.10;99.90
3488;DHT22;38546;48.170;11.724;2024-01-25T12:11:22;10.20;99.90
3488;DHT22;38546;48.170;11.724;2024-01-25T12:13:53;10.30;99.90
3488;DHT22;38546;48.170;11.724;2024-01-25T12:16:24;10.30;99.90
3488;DHT22;38546;48.170;11.724;2024-01-25T12:18:54;10.30;99.90
3488;DHT22;38546;48.170;11.724;2024-01-25T12:21:25;10.30;99.90
3488;DHT22;38546;48.170;11.724;2024-01-25T12:23:58;10.30;99.90
3488;DHT22;38546;48.170;11.724;2024-01-25T12:26:34;10.30;99.90
3488;DHT22;38546;48.170;11.724;2024-01-25T12:29:06;10.40;99.90
3488;DHT22;38546;48.170;11.724;2024-01-25T12:31:38;10.40;99.90
3488;DHT22;38546;48.170;11.724;2024-01-25T12:34:15;10.40;99.90
3488;DHT22;38546;48.170;11.724;2024-01-25T12:36:48;10.30;99.90
3488;DHT22;38546;48.170;11.724;2024-01-25T12:39:19;10.30;99.90
3488;DHT22;38546;48.170;11.724;2024-01-25T12:41:49;10.30;99.90
3488;DHT22;38546;48.170;11.724;2024-01-25T12:44:20;10.50;99.90
3488;DHT22;38546;48.170;11.724;2024-01-25T12:46:51;10.50;99.90
3488;DHT22;38546;48.170;11.724;2024-01-25T12:49:21;10.40;99.90
3488;DHT22;38546;48.170;11.724;2024-01-25T12:51:54;10.30;99.90
3488;DHT22;38546;48.170;11.724;2024-01-25T12:54:26;10.40;99.90
3488;DHT22;38546;48.170;11.724;2024-01-25T12:56:59;10.40;99.90
3488;DHT22;38546;48.170;11.724;2024-01-25T12:59:29;10.30;99.90
3488;DHT22;38546;48.170;11.724;2024-01-25T13:02:00;10.30;99.90
3488;DHT22;38546;48.170;11.724;2024-01-25T13:04:31;10.40;99.90
3488;DHT22;38546;48.170;11.724;2024-01-25T13:07:02;10.50;99.90
3488;DHT22;38546;48.170;11.724;2024-01-25T13:09:32;10.50;99.90
3488;DHT22;38546;48.170;11.724;2024-01-25T13:12:04;10.50;99.90
3488;DHT22;38546;48.170;11.724;2024-01-25T13:14:35;10.60;99.90
3488;DHT22;38546;48.170;11.724;2024-01-25T13:17:06;10.60;99.90
3488;DHT22;38546;48.170;11.724;2024-01-25T13:19:38;10.70;99.90
3488;DHT22;38546;48.170;11.724;2024-01-25T13:22:09;10.70;99.90
3488;DHT22;38546;48.170;11.724;2024-01-25T13:24:39;10.60;99.90
3488;DHT22;38546;48.170;11.724;2024-01-25T13:27:10;10.50;99.90
3488;DHT22;38546;48.170;11.724;2024-01-25T13:29:40;10.60;99.90
3488;DHT22;38546;48.170;11.724;2024-01-25T13:32:11;10.60;99.90
3488;DHT22;38546;48.170;11.724;2024-01-25T13:34:42;10.60;99.90
3488;DHT22;38546;48.170;11.724;2024-01-25T13:37:12;10.60;99.90
3488;DHT22;38546;48.170;11.724;2024-01-25T13:39:44;10.40;99.90
3488;DHT22;38546;48.170;11.724;2024-01-25T13:42:14;10.40;99.90
3488;DHT22;38546;48.170;11.724;2024-01-25T13:44:45;10.50;99.90
3488;DHT22;38546;48.170;11.724;2024-01-25T13:47:15;10.50;99.90
3488;DHT22;38546;48.170;11.724;2024-01-25T13:49:46;10.40;99.90
3488;DHT22;38546;48.170;11.724;2024-01-25T13:52:18;10.50;99.90
3488;DHT22;38546;48.170;11.724;2024-01-25T13:54:50;10.50;99.90
3488;DHT22;38546;48.170;11.724;2024-01-25T13:57:20;10.40;99.90
3488;DHT22;38546;48.170;11.724;2024-01-25T13:59:54;10.40;99.90
3488;DHT22;38546;48.170;11.724;2024-01-25T14:02:24;10.60;99.90
3488;DHT22;38546;48.170;11.724;2024-01-25T14:04:55;10.50;99.90
3488;DHT22;38546;48.170;11.724;2024-01-25T14:07:25;10.40;99.90
3488;DHT22;38546;48.170;11.724;2024-01-25T14:09:56;10.40;99.90
3488;DHT22;38546;48.170;11.724;2024-01-25T14:12:27;10.40;99.90
3488;DHT22;38546;48.170;11.724;2024-01-25T14:14:57;10.50;99.90
3488;DHT22;38546;48.170;11.724;2024-01-25T14:17:28;10.40;99.90
3488;DHT22;38546;48.170;11.724;2024-01-25T14:19:59;10.30;99.90
3488;DHT22;38546;48.170;11.724;2024-01-25T14:22:30;10.20;99.90
3488;DHT22;38546;48.170;11.724;2024-01-25T14:25:01;10.20;99.90
3488;DHT22;38546;48.170;11.724;2024-01-25T14:27:33;10.10;99.90
3488;DHT22;38546;48.170;11.724;2024-01-25T14:30:05;10.10;99.90
3488;DHT22;38546;48.170;11.724;2024-01-25T14:32:37;10.10;99.90
3488;DHT22;38546;48.170;11.724;2024-01-25T14:35:08;10.10;99.90
3488;DHT22;38546;48.170;11.724;2024-01-25T14:37:38;10.00;99.90
3488;DHT22;38546;48.170;11.724;2024-01-25T14:40:10;9.90;99.90
3488;DHT22;38546;48.170;11.724;2024-01-25T14:42:41;10.00;99.90
3488;DHT22;38546;48.170;11.724;2024-01-25T14:45:12;10.10;99.90
3488;DHT22;38546;48.170;11.724;2024-01-25T14:47:43;9.90;99.90
3488;DHT22;38546;48.170;11.724;2024-01-25T14:50:13;10.00;99.90
3488;DHT22;38546;48.170;11.724;2024-01-25T14:52:44;9.90;99.90
3488;DHT22;38546;48.170;11.724;2024-01-25T14:55:16;9.90;99.90
3488;DHT22;38546;48.170;11.724;2024-01-25T14:57:47;9.90;99.90
3488;DHT22;38546;48.170;11.724;2024-01-25T15:00:17;9.80;99.90
3488;DHT22;38546;48.170;11.724;2024-01-25T15:02:50;9.80;99.90
3488;DHT22;38546;48.170;11.724;2024-01-25T15:05:20;9.70;99.90
3488;DHT22;38546;48.170;11.724;2024-01-25T15:07:51;9.60;99.90
3488;DHT22;38546;48.170;11.724;2024-01-25T15:10:22;9.60;99.90
3488;DHT22;38546;48.170;11.724;2024-01-25T15:12:52;9.60;99.90
3488;DHT22;38546;48.170;11.724;2024-01-25T15:15:27;9.60;99.90
3488;DHT22;38546;48.170;11.724;2024-01-25T15:17:58;9.50;99.90
3488;DHT22;38546;48.170;11.724;2024-01-25T15:20:29;9.40;99.90
3488;DHT22;38546;48.170;11.724;2024-01-25T15:23:02;9.50;99.90
3488;DHT22;38546;48.170;11.724;2024-01-25T15:25:33;9.30;99.90
3488;DHT22;38546;48.170;11.724;2024-01-25T15:28:03;9.40;99.90
3488;DHT22;38546;48.170;11.724;2024-01-25T15:30:34;9.40;99.90
3488;DHT22;38546;48.170;11.724;2024-01-25T15:33:05;9.30;99.90
3488;DHT22;38546;48.170;11.724;2024-01-25T15:35:36;9.20;99.90
3488;DHT22;38546;48.170;11.724;2024-01-25T15:38:07;9.20;99.90
3488;DHT22;38546;48.170;11.724;2024-01-25T15:40:38;9.20;99.90
3488;DHT22;38546;48.170;11.724;2024-01-25T15:43:08;9.20;99.90
3488;DHT22;38546;48.170;11.724;2024-01-25T15:45:39;9.20;99.90
3488;DHT22;38546;48.170;11.724;2024-01-25T15:48:11;9.10;99.90
3488;DHT22;38546;48.170;11.724;2024-01-25T15:50:42;9.00;99.90
3488;DHT22;38546;48.170;11.724;2024-01-25T15:53:12;9.00;99.90
3488;DHT22;38546;48.170;11.724;2024-01-25T15:55:45;8.90;99.90
3488;DHT22;38546;48.170;11.724;2024-01-25T15:58:16;9.00;99.90
3488;DHT22;38546;48.170;11.724;2024-01-25T16:00:47;8.90;99.90
3488;DHT22;38546;48.170;11.724;2024-01-25T16:03:17;8.90;99.90
3488;DHT22;38546;48.170;11.724;2024-01-25T16:05:48;8.80;99.90
3488;DHT22;38546;48.170;11.724;2024-01-25T16:08:18;8.80;99.90